Time;durP1;ratioP1;P1;durP2;ratioP2;P2;SDS_P1;SDS_P2;PMS_P1;PMS_P2;Temp;Humidity;BMP_temperature;BMP_pressure;BME280_temperature;BME280_humidity;BME280_pressure;Samples;Min_cycle;Max_cycle;Signal;HPM_P1;HPM_P2
2022/10/12 08:15:54;;;;;;;5.77;2.20;;;15.90;99.90;;;;;;6333434;22;20205;-73
2022/10/12 08:18:22;;;;;;;7.13;2.17;;;15.90;99.90;;;;;;6333069;22;20280;-72
2022/10/12 08:20:49;;;;;;;4.30;2.10;;;16.10;99.90;;;;;;6337493;22;20526;-75
2022/10/12 08:23:15;;;;;;;6.07;2.37;;;16.20;99.90;;;;;;6337306;22;20268;-73
2022/10/12 08:25:42;;;;;;;6.30;2.13;;;16.40;99.90;;;;;;6338037;22;20181;-74
2022/10/12 08:28:09;;;;;;;9.37;2.70;;;16.70;99.90;;;;;;6339780;22;20178;-75
2022/10/12 08:30:39;;;;;;;5.37;2.30;;;17.00;99.90;;;;;;6336862;22;20622;-74
2022/10/12 08:33:05;;;;;;;5.03;2.35;;;17.10;99.90;;;;;;6337101;22;20193;-74
2022/10/12 08:35:34;;;;;;;4.55;2.15;;;17.40;99.90;;;;;;6337862;22;20261;-74
2022/10/12 08:38:00;;;;;;;4.63;2.07;;;16.90;99.90;;;;;;6338310;22;20256;-76
2022/10/12 08:40:31;;;;;;;6.13;1.70;;;16.70;99.90;;;;;;6337385;22;20192;-72
2022/10/12 08:43:04;;;;;;;7.97;2.27;;;16.30;99.90;;;;;;6337388;22;20197;-72
2022/10/12 08:45:40;;;;;;;3.97;1.50;;;16.20;99.90;;;;;;6337344;22;20173;-73
2022/10/12 08:48:12;;;;;;;4.70;1.73;;;16.00;99.90;;;;;;6337065;22;20177;-73
2022/10/12 08:50:46;;;;;;;4.70;1.73;;;16.20;99.90;;;;;;6337952;22;20180;-70
2022/10/12 08:53:19;;;;;;;5.07;2.10;;;15.90;99.90;;;;;;6337597;22;20192;-74
2022/10/12 08:55:46;;;;;;;3.50;1.67;;;15.70;99.90;;;;;;6337124;22;20261;-72
2022/10/12 08:58:16;;;;;;;5.23;1.60;;;15.60;99.90;;;;;;6337654;22;20260;-73
2022/10/12 09:00:48;;;;;;;2.87;1.43;;;15.40;99.90;;;;;;6337190;22;20629;-70
2022/10/12 09:03:26;;;;;;;5.67;1.50;;;15.00;99.90;;;;;;6339182;22;20266;-70
2022/10/12 09:06:03;;;;;;;5.53;1.70;;;14.60;99.90;;;;;;6339538;22;20177;-72
2022/10/12 09:08:45;;;;;;;4.20;1.30;;;14.30;99.90;;;;;;6338774;22;20181;-70
2022/10/12 09:11:25;;;;;;;4.40;1.53;;;14.30;99.90;;;;;;6337950;22;20220;-69
2022/10/12 09:14:00;;;;;;;4.40;1.30;;;14.20;99.90;;;;;;6339594;22;20279;-70
2022/10/12 09:16:30;;;;;;;4.40;1.20;;;14.10;99.90;;;;;;6339438;22;20180;-69
2022/10/12 09:19:01;;;;;;;4.00;1.50;;;14.10;99.90;;;;;;6339388;22;20211;-71
2022/10/12 09:21:31;;;;;;;3.47;1.47;;;14.20;99.90;;;;;;6339071;22;20703;-69
2022/10/12 09:23:58;;;;;;;2.37;1.40;;;14.40;99.90;;;;;;6339001;22;20547;-69
2022/10/12 09:26:34;;;;;;;4.00;1.30;;;14.30;99.90;;;;;;6339151;22;20177;-70
2022/10/12 09:29:02;;;;;;;6.37;1.40;;;14.30;99.90;;;;;;6339458;22;20282;-69
2022/10/12 09:31:43;;;;;;;4.00;1.40;;;14.30;99.90;;;;;;6339184;22;20173;-70
2022/10/12 09:34:10;;;;;;;3.20;1.40;;;14.30;99.90;;;;;;6339324;22;20215;-70
2022/10/12 09:36:40;;;;;;;5.47;1.20;;;14.40;99.90;;;;;;6339473;22;20184;-69
2022/10/12 09:39:12;;;;;;;2.87;1.10;;;14.50;99.90;;;;;;6338649;22;20211;-69
2022/10/12 09:41:42;;;;;;;4.53;1.70;;;14.50;99.90;;;;;;6339122;22;20629;-70
2022/10/12 09:44:16;;;;;;;5.20;1.40;;;14.30;99.90;;;;;;6339043;22;20202;-70
2022/10/12 09:46:47;;;;;;;6.30;1.80;;;14.30;99.90;;;;;;6338266;22;20622;-69
2022/10/12 09:49:14;;;;;;;4.70;1.40;;;14.20;99.90;;;;;;6338462;22;20256;-70
2022/10/12 09:51:44;;;;;;;3.60;1.50;;;14.40;99.90;;;;;;6339080;22;20258;-69
2022/10/12 09:54:18;;;;;;;4.70;1.30;;;14.50;99.90;;;;;;6338961;22;20203;-68
2022/10/12 09:56:50;;;;;;;3.93;1.43;;;14.90;99.90;;;;;;6338741;22;20184;-67
2022/10/12 09:59:27;;;;;;;5.70;1.20;;;15.10;99.90;;;;;;6338735;22;20223;-70
2022/10/12 10:02:03;;;;;;;3.07;1.27;;;15.60;99.90;;;;;;6338679;22;20182;-70
2022/10/12 10:04:30;;;;;;;2.10;1.10;;;15.80;99.90;;;;;;6338739;22;20560;-70
2022/10/12 10:07:14;;;;;;;4.00;1.27;;;16.00;99.90;;;;;;6339149;22;20174;-70
2022/10/12 10:09:40;;;;;;;4.17;1.40;;;15.90;99.90;;;;;;6339031;22;20177;-70
2022/10/12 10:12:21;;;;;;;4.00;0.87;;;15.80;99.90;;;;;;6339001;22;20180;-70
2022/10/12 10:14:49;;;;;;;4.77;1.30;;;16.00;99.90;;;;;;6338880;22;20505;-70
2022/10/12 10:17:23;;;;;;;6.53;1.47;;;16.20;99.90;;;;;;6338432;22;20181;-71
2022/10/12 10:19:51;;;;;;;2.93;1.00;;;16.30;99.90;;;;;;6338866;22;20205;-70
2022/10/12 10:22:19;;;;;;;4.13;1.40;;;16.20;99.90;;;;;;6338360;22;20193;-69
2022/10/12 10:24:51;;;;;;;4.07;1.33;;;16.20;99.90;;;;;;6338697;22;20173;-68
2022/10/12 10:27:31;;;;;;;8.73;1.23;;;16.30;99.90;;;;;;6338322;22;20640;-69
2022/10/12 10:30:25;;;;;;;2.97;1.10;;;16.10;99.90;;;;;;6338869;22;20256;-69
2022/10/12 10:33:12;;;;;;;3.10;1.13;;;16.20;99.90;;;;;;6335155;22;20657;-68
2022/10/12 10:35:39;;;;;;;3.97;0.90;;;16.30;99.90;;;;;;6339063;22;20253;-68
2022/10/12 10:38:15;;;;;;;2.47;1.17;;;16.30;99.90;;;;;;6338510;22;20651;-68
2022/10/12 10:40:42;;;;;;;5.10;1.63;;;16.30;99.90;;;;;;6338658;22;20204;-68
2022/10/12 10:43:20;;;;;;;2.50;1.00;;;16.40;99.90;;;;;;6338317;22;20523;-68
2022/10/12 10:45:51;;;;;;;4.83;1.13;;;16.60;99.90;;;;;;6338887;22;20498;-69
2022/10/12 10:48:21;;;;;;;2.50;1.00;;;16.70;99.90;;;;;;6338311;22;20176;-68
2022/10/12 10:50:52;;;;;;;3.60;0.90;;;16.50;99.90;;;;;;6338855;22;20177;-68
2022/10/12 10:53:23;;;;;;;2.43;0.87;;;16.50;99.90;;;;;;6337761;22;20220;-68
2022/10/12 10:55:55;;;;;;;1.77;0.70;;;16.30;99.90;;;;;;6338349;22;20187;-69
2022/10/12 10:58:29;;;;;;;7.40;2.67;;;16.30;99.90;;;;;;6337963;22;20471;-69
2022/10/12 11:01:01;;;;;;;4.10;1.73;;;16.40;99.90;;;;;;6338508;22;20205;-71
2022/10/12 11:03:33;;;;;;;2.97;1.20;;;16.50;99.90;;;;;;6338597;22;20200;-69
2022/10/12 11:06:08;;;;;;;5.90;1.40;;;16.60;99.90;;;;;;6338169;22;20170;-68
2022/10/12 11:08:38;;;;;;;3.00;1.40;;;16.60;99.90;;;;;;6340513;22;20260;-70
2022/10/12 11:11:12;;;;;;;7.50;1.77;;;16.50;99.90;;;;;;6340657;22;20505;-71
2022/10/12 11:13:42;;;;;;;6.93;1.57;;;16.60;99.90;;;;;;6340648;22;20193;-70
2022/10/12 11:16:24;;;;;;;5.73;1.87;;;16.80;99.90;;;;;;6340024;22;20177;-71
2022/10/12 11:18:55;;;;;;;1.97;1.40;;;17.20;99.90;;;;;;6340201;22;20497;-69
2022/10/12 11:21:26;;;;;;;2.63;1.50;;;17.50;99.90;;;;;;6340651;22;20180;-71
2022/10/12 11:24:04;;;;;;;3.50;1.30;;;17.50;99.90;;;;;;6340643;22;20193;-72
2022/10/12 11:26:37;;;;;;;5.83;1.90;;;17.50;99.90;;;;;;6340175;22;20260;-71
2022/10/12 11:29:05;;;;;;;5.30;1.50;;;17.40;99.90;;;;;;6339960;22;20173;-71
2022/10/12 11:31:36;;;;;;;3.72;1.70;;;17.40;99.90;;;;;;6339921;22;20177;-72
2022/10/12 11:34:13;;;;;;;4.57;1.60;;;17.50;99.90;;;;;;6340230;22;20220;-71
2022/10/12 11:36:45;;;;;;;2.67;1.27;;;17.20;99.90;;;;;;6337568;22;20173;-70
2022/10/12 11:39:18;;;;;;;5.30;1.63;;;17.20;99.90;;;;;;6338016;22;20201;-71
2022/10/12 11:41:48;;;;;;;5.33;1.30;;;17.30;99.90;;;;;;6339153;22;20173;-71
2022/10/12 11:44:19;;;;;;;3.83;1.40;;;17.40;99.90;;;;;;6338493;22;20193;-68
2022/10/12 11:46:48;;;;;;;3.33;1.30;;;17.20;99.90;;;;;;6338541;22;20177;-70
2022/10/12 11:49:25;;;;;;;4.47;1.50;;;17.10;99.90;;;;;;6338083;22;20633;-72
2022/10/12 11:51:57;;;;;;;9.60;1.87;;;17.00;99.90;;;;;;6339398;22;20173;-71
2022/10/12 11:54:32;;;;;;;2.67;1.33;;;17.10;99.90;;;;;;6339154;22;20184;-70
2022/10/12 11:57:05;;;;;;;6.73;2.80;;;17.00;99.90;;;;;;6339053;22;20255;-72
2022/10/12 11:59:36;;;;;;;2.80;1.30;;;16.90;99.90;;;;;;6338561;22;20201;-70
2022/10/12 12:02:14;;;;;;;6.23;1.40;;;16.90;99.90;;;;;;6339526;22;20173;-71
2022/10/12 12:04:44;;;;;;;5.57;2.10;;;16.90;99.90;;;;;;6340000;22;20263;-71
2022/10/12 12:07:52;;;;;;;4.80;1.80;;;16.80;99.90;;;;;;6339955;22;20208;-71
2022/10/12 12:11:03;;;;;;;2.70;1.20;;;16.80;99.90;;;;;;6331200;22;20174;-71
2022/10/12 12:13:32;;;;;;;3.77;1.33;;;16.80;99.90;;;;;;6339650;22;20197;-70
2022/10/12 12:16:32;;;;;;;4.07;1.20;;;16.80;99.90;;;;;;6339689;22;20246;-71
2022/10/12 12:19:36;;;;;;;6.87;1.40;;;16.90;99.90;;;;;;6339566;22;20263;-70
2022/10/12 12:22:32;;;;;;;2.87;1.57;;;16.90;99.90;;;;;;6339371;22;20567;-70
2022/10/12 12:25:23;;;;;;;2.10;1.10;;;16.90;99.90;;;;;;6339953;22;20174;-69
2022/10/12 12:27:52;;;;;;;3.77;1.30;;;17.10;99.90;;;;;;6339619;22;20651;-70
2022/10/12 12:30:39;;;;;;;4.20;1.53;;;17.00;99.90;;;;;;6336946;22;20512;-72
2022/10/12 12:33:29;;;;;;;1.70;0.77;;;17.30;99.90;;;;;;6338746;22;20684;-74
2022/10/12 12:36:00;;;;;;;5.73;1.40;;;17.60;99.90;;;;;;6339691;22;20178;-73
2022/10/12 12:38:30;;;;;;;3.10;1.10;;;17.60;99.90;;;;;;6339735;22;20179;-72
2022/10/12 12:41:00;;;;;;;3.72;1.55;;;17.60;99.90;;;;;;6339423;22;20205;-72
2022/10/12 12:43:50;;;;;;;5.13;1.50;;;17.80;99.90;;;;;;6339472;22;20197;-72
2022/10/12 12:46:19;;;;;;;6.70;1.50;;;17.80;99.90;;;;;;6339265;22;20261;-71
2022/10/12 12:49:02;;;;;;;3.00;1.38;;;17.90;99.90;;;;;;6339108;22;20253;-71
2022/10/12 12:51:42;;;;;;;2.15;1.38;;;17.60;99.90;;;;;;6338420;22;20181;-71
2022/10/12 12:54:18;;;;;;;5.03;1.50;;;17.60;99.90;;;;;;6339031;22;20272;-72
2022/10/12 12:57:00;;;;;;;3.05;1.33;;;17.70;99.90;;;;;;6338552;22;20179;-72
2022/10/12 13:00:00;;;;;;;3.45;1.10;;;17.80;99.90;;;;;;6338533;22;20649;-70
2022/10/12 13:03:07;;;;;;;1.95;1.30;;;18.00;99.90;;;;;;6338947;22;20199;-70
2022/10/12 13:06:10;;;;;;;2.63;0.88;;;18.30;99.90;;;;;;6339355;22;20180;-72
2022/10/12 13:08:53;;;;;;;3.17;1.20;;;18.40;99.90;;;;;;6339688;22;20173;-73
2022/10/12 13:11:37;;;;;;;3.40;1.23;;;18.40;99.90;;;;;;6339119;22;20181;-73
2022/10/12 13:14:16;;;;;;;2.55;1.25;;;18.40;99.90;;;;;;6338968;22;20736;-73
2022/10/12 13:17:03;;;;;;;3.78;1.50;;;18.20;99.90;;;;;;6338686;22;20268;-73
2022/10/12 13:19:35;;;;;;;2.03;1.00;;;18.00;99.90;;;;;;6338794;22;20173;-72
2022/10/12 13:22:06;;;;;;;3.08;1.02;;;18.00;99.90;;;;;;6338638;22;20183;-72
2022/10/12 13:24:43;;;;;;;5.65;1.08;;;17.90;99.90;;;;;;6339131;22;20183;-73
2022/10/12 13:27:18;;;;;;;2.55;1.00;;;17.80;99.90;;;;;;6339281;22;20501;-73
2022/10/12 13:29:50;;;;;;;2.42;1.20;;;17.80;99.90;;;;;;6338200;22;20181;-74
2022/10/12 13:32:26;;;;;;;1.42;1.02;;;17.70;99.90;;;;;;6338326;22;20206;-74
2022/10/12 13:35:01;;;;;;;5.20;1.00;;;17.50;99.90;;;;;;6339255;22;20554;-73
2022/10/12 13:37:33;;;;;;;1.67;1.05;;;17.30;99.90;;;;;;6338725;22;20184;-73
2022/10/12 13:40:00;;;;;;;3.63;1.00;;;17.30;99.90;;;;;;6339062;22;20563;-74
2022/10/12 13:42:30;;;;;;;3.20;1.10;;;17.20;99.90;;;;;;6338589;22;20239;-69
2022/10/12 13:44:58;;;;;;;4.53;1.55;;;17.30;99.90;;;;;;6339241;22;20173;-69
2022/10/12 13:47:28;;;;;;;5.10;1.10;;;17.40;99.90;;;;;;6338815;22;20216;-69
2022/10/12 13:49:56;;;;;;;2.75;1.23;;;17.30;99.90;;;;;;6338916;22;20241;-69
2022/10/12 13:52:26;;;;;;;5.73;1.53;;;17.20;99.90;;;;;;6339010;22;20276;-69
2022/10/12 13:54:54;;;;;;;2.28;1.20;;;17.40;99.90;;;;;;6339028;22;20173;-69
2022/10/12 13:57:25;;;;;;;5.70;1.20;;;17.40;99.90;;;;;;6339346;22;20179;-69
2022/10/12 13:59:57;;;;;;;2.37;1.00;;;17.50;99.90;;;;;;6339369;22;20260;-69
2022/10/12 14:02:26;;;;;;;4.43;1.40;;;17.50;99.90;;;;;;6338946;22;20250;-69
2022/10/12 14:04:54;;;;;;;2.73;1.23;;;17.50;99.90;;;;;;6338718;22;20184;-69
2022/10/12 14:07:25;;;;;;;4.70;2.05;;;17.60;99.90;;;;;;6339050;22;20177;-69
2022/10/12 14:09:56;;;;;;;5.27;1.50;;;17.40;99.90;;;;;;6339189;22;20177;-69
2022/10/12 14:12:24;;;;;;;3.13;1.52;;;17.50;99.90;;;;;;6338956;22;20193;-69
2022/10/12 14:14:52;;;;;;;2.25;1.10;;;17.60;99.90;;;;;;6339311;22;20208;-68
2022/10/12 14:17:20;;;;;;;3.67;1.40;;;17.50;99.90;;;;;;6338593;22;20185;-69
2022/10/12 14:19:50;;;;;;;3.70;1.20;;;17.50;99.90;;;;;;6339014;22;20625;-70
2022/10/12 14:22:23;;;;;;;2.77;1.20;;;17.50;99.90;;;;;;6338877;22;20193;-69
2022/10/12 14:24:52;;;;;;;3.03;1.10;;;17.40;99.90;;;;;;6338310;22;20173;-69
2022/10/12 14:27:25;;;;;;;1.40;1.02;;;17.20;99.90;;;;;;6338114;22;20259;-70
2022/10/12 14:30:03;;;;;;;3.00;1.30;;;17.20;99.90;;;;;;6338825;22;20232;-69
2022/10/12 14:32:39;;;;;;;3.43;1.60;;;17.10;99.90;;;;;;6338352;22;20197;-70
2022/10/12 14:35:27;;;;;;;2.35;1.20;;;17.20;99.90;;;;;;6338372;22;20754;-69
2022/10/12 14:37:56;;;;;;;5.57;1.53;;;17.10;99.90;;;;;;6338664;22;20173;-70
2022/10/12 14:40:37;;;;;;;3.43;1.30;;;17.30;99.90;;;;;;6338790;22;20668;-70
2022/10/12 14:43:08;;;;;;;2.33;1.00;;;17.30;99.90;;;;;;6340570;22;20580;-69
2022/10/12 14:45:35;;;;;;;6.87;1.43;;;17.20;99.90;;;;;;6341070;22;20208;-69
2022/10/12 14:48:04;;;;;;;4.60;1.07;;;17.40;99.90;;;;;;6340867;22;20173;-69
2022/10/12 14:50:32;;;;;;;4.70;1.50;;;17.50;99.90;;;;;;6340636;22;20226;-69
2022/10/12 14:53:03;;;;;;;2.22;0.75;;;17.60;99.90;;;;;;6340654;22;20193;-69
2022/10/12 14:55:32;;;;;;;3.25;1.00;;;17.80;99.90;;;;;;6340608;22;20620;-70
2022/10/12 14:58:00;;;;;;;2.50;1.00;;;17.80;99.90;;;;;;6340805;22;20252;-69
2022/10/12 15:00:31;;;;;;;4.43;1.35;;;17.80;99.90;;;;;;6340588;22;20200;-69
2022/10/12 15:02:58;;;;;;;4.13;1.35;;;17.80;99.90;;;;;;6340433;22;20193;-69
2022/10/12 15:05:27;;;;;;;3.00;1.20;;;17.70;99.90;;;;;;6340512;22;20179;-69
2022/10/12 15:07:55;;;;;;;3.45;0.98;;;17.90;99.90;;;;;;6340889;22;20502;-70
2022/10/12 15:10:24;;;;;;;4.68;1.40;;;18.00;99.90;;;;;;6340476;22;20259;-69
2022/10/12 15:12:51;;;;;;;4.40;1.10;;;17.90;99.90;;;;;;6340015;22;20636;-69
2022/10/12 15:15:28;;;;;;;4.65;1.13;;;17.90;99.90;;;;;;6340250;22;20264;-69
2022/10/12 15:17:55;;;;;;;3.28;1.10;;;18.00;99.90;;;;;;6340109;22;20185;-69
2022/10/12 15:20:22;;;;;;;3.35;1.02;;;18.10;99.90;;;;;;6340117;22;20197;-70
2022/10/12 15:22:49;;;;;;;3.97;1.15;;;18.00;99.90;;;;;;6340216;22;20197;-69
2022/10/12 15:25:20;;;;;;;3.20;1.23;;;17.90;99.90;;;;;;6340179;22;20184;-69
2022/10/12 15:27:48;;;;;;;3.08;1.45;;;17.90;99.90;;;;;;6340019;22;20173;-69
2022/10/12 15:30:16;;;;;;;1.88;1.23;;;17.90;99.90;;;;;;6340360;22;20195;-69
2022/10/12 15:32:43;;;;;;;2.60;1.38;;;17.80;99.90;;;;;;6340150;22;20193;-69
2022/10/12 15:35:17;;;;;;;2.58;1.20;;;17.70;99.90;;;;;;6340266;22;20497;-69
2022/10/12 15:37:44;;;;;;;5.25;1.60;;;17.60;99.90;;;;;;6340432;22;20177;-69
2022/10/12 15:40:12;;;;;;;4.30;1.13;;;17.50;99.90;;;;;;6340028;22;20200;-69
2022/10/12 15:42:41;;;;;;;2.33;1.17;;;17.50;99.90;;;;;;6339308;22;20664;-69
2022/10/12 15:45:17;;;;;;;4.82;1.25;;;17.30;99.90;;;;;;6339588;22;20178;-68
2022/10/12 15:47:45;;;;;;;3.07;1.37;;;17.20;99.90;;;;;;6339931;22;20259;-69
2022/10/12 15:50:13;;;;;;;4.93;1.50;;;17.10;99.90;;;;;;6339645;22;20177;-69
2022/10/12 15:52:40;;;;;;;2.97;1.13;;;17.00;99.90;;;;;;6338856;22;20205;-69
2022/10/12 15:55:16;;;;;;;12.13;3.47;;;16.80;99.90;;;;;;6338201;22;20184;-69
2022/10/12 15:57:42;;;;;;;11.57;3.87;;;16.50;99.90;;;;;;6337945;22;20180;-69
2022/10/12 16:00:11;;;;;;;5.80;1.80;;;16.40;99.90;;;;;;6338202;22;20180;-68
2022/10/12 16:02:41;;;;;;;6.73;1.80;;;16.40;99.90;;;;;;6338374;22;20201;-68
2022/10/12 16:05:17;;;;;;;2.40;1.40;;;16.30;99.90;;;;;;6340099;22;20177;-69
2022/10/12 16:07:43;;;;;;;3.10;1.40;;;16.20;99.90;;;;;;6339575;22;20248;-69
2022/10/12 16:10:13;;;;;;;3.47;1.37;;;16.10;99.90;;;;;;6339774;22;20667;-70
2022/10/12 16:12:42;;;;;;;5.77;1.20;;;16.00;99.90;;;;;;6340169;22;20304;-70
2022/10/12 16:15:11;;;;;;;3.13;1.30;;;15.90;99.90;;;;;;6339957;22;20177;-69
2022/10/12 16:17:39;;;;;;;3.33;1.40;;;15.80;99.90;;;;;;6339648;22;20185;-69
2022/10/12 16:20:07;;;;;;;4.73;1.87;;;15.70;99.90;;;;;;6339988;22;20174;-68
2022/10/12 16:22:35;;;;;;;3.13;1.40;;;15.60;99.90;;;;;;6339340;22;20216;-70
2022/10/12 16:25:03;;;;;;;3.33;1.70;;;15.50;99.90;;;;;;6339970;22;20173;-69
2022/10/12 16:27:30;;;;;;;3.17;1.33;;;15.50;99.90;;;;;;6339820;22;20173;-69
2022/10/12 16:29:57;;;;;;;4.73;1.83;;;15.40;99.90;;;;;;6340076;22;20259;-69
2022/10/12 16:32:24;;;;;;;3.13;1.50;;;15.30;99.90;;;;;;6339740;22;20197;-70
2022/10/12 16:34:52;;;;;;;4.23;1.60;;;15.10;99.90;;;;;;6339432;22;20633;-69
2022/10/12 16:37:19;;;;;;;4.40;1.57;;;15.10;99.90;;;;;;6339872;22;20174;-69
2022/10/12 16:39:45;;;;;;;2.73;1.70;;;15.10;99.90;;;;;;6340115;22;20174;-69
2022/10/12 16:42:12;;;;;;;2.17;1.33;;;15.00;99.90;;;;;;6339456;22;20232;-69
2022/10/12 16:44:39;;;;;;;6.00;1.47;;;15.00;99.90;;;;;;6339510;22;20173;-69
2022/10/12 16:47:06;;;;;;;3.20;1.40;;;15.00;99.90;;;;;;6339653;22;20173;-69
2022/10/12 16:49:34;;;;;;;5.97;2.70;;;14.90;99.90;;;;;;6339735;22;20193;-69
2022/10/12 16:52:02;;;;;;;5.83;2.90;;;14.80;99.90;;;;;;6339366;22;20180;-68
2022/10/12 16:54:29;;;;;;;3.60;1.67;;;14.80;99.90;;;;;;6339629;22;20173;-69
2022/10/12 16:56:56;;;;;;;5.20;1.67;;;14.70;99.90;;;;;;6339386;22;20622;-69
2022/10/12 16:59:24;;;;;;;1.93;1.23;;;14.70;99.90;;;;;;6339243;22;20646;-70
2022/10/12 17:01:51;;;;;;;3.17;1.70;;;14.60;99.90;;;;;;6338661;22;20672;-70
2022/10/12 17:04:18;;;;;;;3.93;1.67;;;14.50;99.90;;;;;;6338998;22;20677;-70
2022/10/12 17:06:45;;;;;;;3.47;1.63;;;14.30;99.90;;;;;;6339329;22;20177;-69
2022/10/12 17:09:13;;;;;;;3.77;1.63;;;14.40;99.90;;;;;;6339683;22;20173;-69
2022/10/12 17:11:41;;;;;;;4.83;1.90;;;14.40;99.90;;;;;;6339096;22;20502;-69
2022/10/12 17:14:09;;;;;;;4.13;1.80;;;14.40;99.90;;;;;;6339897;22;20193;-69
2022/10/12 17:16:51;;;;;;;8.73;1.97;;;14.20;99.90;;;;;;6339089;22;20187;-70
2022/10/12 17:19:20;;;;;;;4.13;1.93;;;14.20;99.90;;;;;;6339552;22;20181;-69
2022/10/12 17:21:47;;;;;;;7.43;2.97;;;14.00;99.90;;;;;;6339302;22;20258;-70
2022/10/12 17:24:19;;;;;;;4.73;2.07;;;14.00;99.90;;;;;;6339328;22;20228;-70
2022/10/12 17:26:46;;;;;;;8.37;2.30;;;13.80;99.90;;;;;;6339679;22;20180;-69
2022/10/12 17:29:15;;;;;;;7.63;2.60;;;13.80;99.90;;;;;;6339369;22;20664;-70
2022/10/12 17:31:43;;;;;;;8.60;2.83;;;13.50;99.90;;;;;;6339256;22;20185;-69
2022/10/12 17:34:17;;;;;;;3.90;2.40;;;13.50;99.90;;;;;;6339399;22;20199;-69
2022/10/12 17:36:44;;;;;;;5.77;2.90;;;13.40;99.90;;;;;;6339165;22;20180;-69
2022/10/12 17:39:11;;;;;;;7.17;2.90;;;13.40;99.90;;;;;;6339348;22;20183;-68
2022/10/12 17:41:39;;;;;;;6.00;3.73;;;13.40;99.90;;;;;;6339208;22;20517;-69
2022/10/12 17:44:06;;;;;;;8.83;3.53;;;13.30;99.90;;;;;;6339792;22;20275;-70
2022/10/12 17:46:33;;;;;;;9.43;3.60;;;13.30;99.90;;;;;;6339606;22;20173;-69
2022/10/12 17:49:01;;;;;;;9.90;3.53;;;13.30;99.90;;;;;;6339229;22;20183;-69
2022/10/12 17:51:28;;;;;;;6.23;3.60;;;13.20;99.90;;;;;;6339284;22;20178;-68
2022/10/12 17:53:55;;;;;;;10.47;4.13;;;13.20;99.90;;;;;;6339445;22;20272;-69
2022/10/12 17:56:21;;;;;;;10.30;4.30;;;13.30;99.90;;;;;;6339183;22;20179;-69
2022/10/12 17:58:54;;;;;;;9.27;4.37;;;13.20;99.90;;;;;;6338755;22;20550;-68
2022/10/12 18:01:21;;;;;;;8.07;4.73;;;13.10;99.90;;;;;;6338694;22;20208;-68
2022/10/12 18:03:49;;;;;;;16.13;5.23;;;13.10;99.90;;;;;;6338630;22;20696;-69
2022/10/12 18:06:19;;;;;;;10.20;5.40;;;13.10;99.90;;;;;;6339106;22;20173;-70
2022/10/12 18:08:46;;;;;;;10.43;5.00;;;13.10;99.90;;;;;;6339015;22;20177;-69
2022/10/12 18:11:14;;;;;;;15.63;5.77;;;13.00;99.90;;;;;;6338865;22;20180;-70
2022/10/12 18:13:44;;;;;;;11.53;6.50;;;13.00;99.90;;;;;;6338711;22;20197;-69
2022/10/12 18:16:12;;;;;;;13.97;6.50;;;13.10;99.90;;;;;;6338310;22;20187;-70
2022/10/12 18:18:40;;;;;;;9.27;4.87;;;13.10;99.90;;;;;;6338355;22;20582;-69
2022/10/12 18:21:08;;;;;;;9.13;4.60;;;13.10;99.90;;;;;;6338658;22;20177;-69
2022/10/12 18:23:35;;;;;;;8.77;4.80;;;13.10;99.90;;;;;;6338888;22;20193;-69
2022/10/12 18:26:03;;;;;;;9.00;5.00;;;13.10;99.90;;;;;;6338968;22;20633;-70
2022/10/12 18:28:30;;;;;;;8.10;4.77;;;13.10;99.90;;;;;;6338836;22;20252;-69
2022/10/12 18:30:57;;;;;;;10.83;4.70;;;13.00;99.90;;;;;;6338365;22;20223;-70
2022/10/12 18:33:25;;;;;;;11.60;4.70;;;13.00;99.90;;;;;;6338728;22;20211;-68
2022/10/12 18:35:52;;;;;;;8.83;4.23;;;12.90;99.90;;;;;;6338572;22;20208;-69
2022/10/12 18:38:20;;;;;;;7.83;4.50;;;12.90;99.90;;;;;;6338881;22;20177;-69
2022/10/12 18:40:47;;;;;;;10.73;4.33;;;13.00;99.90;;;;;;6338839;22;20644;-69
2022/10/12 18:43:14;;;;;;;7.30;3.80;;;13.00;99.90;;;;;;6338529;22;20209;-69
2022/10/12 18:45:42;;;;;;;10.63;4.20;;;13.00;99.90;;;;;;6338364;22;20693;-69
2022/10/12 18:48:09;;;;;;;11.57;4.60;;;13.00;99.90;;;;;;6339042;22;20536;-69
2022/10/12 18:50:38;;;;;;;9.37;3.87;;;13.00;99.90;;;;;;6338521;22;20180;-69
2022/10/12 18:53:05;;;;;;;6.37;3.70;;;13.00;99.90;;;;;;6338030;22;20761;-69
2022/10/12 18:55:36;;;;;;;7.27;4.37;;;13.00;99.90;;;;;;6338531;22;20195;-68
2022/10/12 18:58:03;;;;;;;7.27;4.20;;;13.00;99.90;;;;;;6338220;22;20209;-69
2022/10/12 19:00:30;;;;;;;6.30;3.57;;;13.00;99.90;;;;;;6338579;22;20179;-69
2022/10/12 19:02:57;;;;;;;8.27;3.83;;;13.00;99.90;;;;;;6338508;22;20241;-69
2022/10/12 19:05:24;;;;;;;7.13;4.03;;;12.90;99.90;;;;;;6338393;22;20657;-70
2022/10/12 19:07:52;;;;;;;8.10;4.23;;;12.80;99.90;;;;;;6338444;22;20717;-70
2022/10/12 19:10:19;;;;;;;7.50;3.70;;;12.80;99.90;;;;;;6338811;22;20173;-69
2022/10/12 19:12:46;;;;;;;7.43;3.73;;;12.70;99.90;;;;;;6338710;22;20193;-69
2022/10/12 19:15:12;;;;;;;7.90;4.30;;;12.70;99.90;;;;;;6338141;22;20494;-70
2022/10/12 19:17:39;;;;;;;9.90;4.70;;;12.60;99.90;;;;;;6337829;22;20208;-69
2022/10/12 19:20:07;;;;;;;7.20;4.07;;;12.60;99.90;;;;;;6338451;22;20212;-69
2022/10/12 19:22:34;;;;;;;7.30;4.30;;;12.60;99.90;;;;;;6337973;22;20662;-69
2022/10/12 19:25:02;;;;;;;8.00;4.47;;;12.50;99.90;;;;;;6338627;22;20255;-69
2022/10/12 19:27:29;;;;;;;9.13;4.20;;;12.50;99.90;;;;;;6338998;22;20174;-70
2022/10/12 19:29:56;;;;;;;10.37;4.50;;;12.50;99.90;;;;;;6340133;22;20256;-69
2022/10/12 19:32:23;;;;;;;12.43;4.17;;;12.50;99.90;;;;;;6339838;22;20516;-69
2022/10/12 19:34:51;;;;;;;11.97;3.90;;;12.50;99.90;;;;;;6340376;22;20180;-69
2022/10/12 19:37:17;;;;;;;7.90;4.37;;;12.50;99.90;;;;;;6340363;22;20177;-68
2022/10/12 19:39:45;;;;;;;8.43;4.27;;;12.60;99.90;;;;;;6340078;22;20633;-68
2022/10/12 19:42:14;;;;;;;8.93;4.30;;;12.60;99.90;;;;;;6341080;22;20263;-68
2022/10/12 19:44:41;;;;;;;5.10;4.10;;;12.60;99.90;;;;;;6340824;22;20252;-68
2022/10/12 19:47:07;;;;;;;8.77;4.30;;;12.60;99.90;;;;;;6340580;22;20181;-68
2022/10/12 19:49:34;;;;;;;8.27;4.23;;;12.60;99.90;;;;;;6340131;22;20637;-68
2022/10/12 19:52:01;;;;;;;11.93;4.57;;;12.60;99.90;;;;;;6340409;22;20177;-69
2022/10/12 19:54:28;;;;;;;7.63;4.37;;;12.60;99.90;;;;;;6340449;22;20252;-68
2022/10/12 19:56:55;;;;;;;9.17;4.73;;;12.60;99.90;;;;;;6340236;22;20673;-68
2022/10/12 19:59:23;;;;;;;7.57;4.13;;;12.60;99.90;;;;;;6340148;22;20179;-68
2022/10/12 20:01:50;;;;;;;6.00;3.83;;;12.60;99.90;;;;;;6339996;22;20280;-68
2022/10/12 20:04:17;;;;;;;9.50;4.30;;;12.70;99.90;;;;;;6339506;22;20591;-68
2022/10/12 20:06:44;;;;;;;6.83;4.00;;;12.60;99.90;;;;;;6339763;22;20173;-68
2022/10/12 20:09:11;;;;;;;6.93;3.90;;;12.60;99.90;;;;;;6340587;22;20181;-68
2022/10/12 20:11:38;;;;;;;7.90;4.43;;;12.60;99.90;;;;;;6340173;22;20208;-68
2022/10/12 20:14:07;;;;;;;8.83;4.30;;;12.60;99.90;;;;;;6340006;22;20246;-68
2022/10/12 20:16:36;;;;;;;8.73;3.67;;;12.60;99.90;;;;;;6339711;22;20187;-68
2022/10/12 20:19:03;;;;;;;4.37;3.17;;;12.60;99.90;;;;;;6349820;22;20214;-66
2022/10/12 20:21:30;;;;;;;8.00;3.90;;;12.60;99.90;;;;;;6371561;22;20172;-66
2022/10/12 20:23:56;;;;;;;9.33;3.90;;;12.60;99.90;;;;;;6371403;22;20208;-67
2022/10/12 20:26:25;;;;;;;5.43;3.17;;;12.60;99.90;;;;;;6371364;22;20178;-66
2022/10/12 20:28:53;;;;;;;7.77;3.57;;;12.60;99.90;;;;;;6371157;22;20493;-71
2022/10/12 20:31:22;;;;;;;6.47;3.20;;;12.60;99.90;;;;;;6371039;22;20632;-68
2022/10/12 20:33:52;;;;;;;7.73;4.00;;;12.50;99.90;;;;;;6370630;22;20573;-70
2022/10/12 20:36:21;;;;;;;9.03;3.80;;;12.50;99.90;;;;;;6370813;22;20628;-66
2022/10/12 20:38:48;;;;;;;6.80;3.47;;;12.60;99.90;;;;;;6370553;22;20176;-68
2022/10/12 20:41:16;;;;;;;8.90;3.60;;;12.60;99.90;;;;;;6371514;22;20180;-70
2022/10/12 20:43:43;;;;;;;7.10;3.87;;;12.60;99.90;;;;;;6370680;22;20534;-68
2022/10/12 20:46:13;;;;;;;5.70;2.90;;;12.60;99.90;;;;;;6371167;22;20509;-72
2022/10/12 20:48:40;;;;;;;6.67;3.40;;;12.60;99.90;;;;;;6371355;22;20195;-67
2022/10/12 20:51:10;;;;;;;6.90;3.57;;;12.50;99.90;;;;;;6370858;22;20486;-69
2022/10/12 20:53:37;;;;;;;7.93;3.00;;;12.50;99.90;;;;;;6371149;22;20201;-68
2022/10/12 20:56:05;;;;;;;5.10;3.13;;;12.50;99.90;;;;;;6370688;22;20547;-68
2022/10/12 20:58:31;;;;;;;6.10;3.30;;;12.60;99.90;;;;;;6371124;22;20179;-71
2022/10/12 21:01:06;;;;;;;7.13;3.50;;;12.70;99.90;;;;;;6370944;22;20187;-67
